Time;durP1;ratioP1;P1;durP2;ratioP2;P2;SDS_P1;SDS_P2;PMS_P1;PMS_P2;Temp;Humidity;BMP_temperature;BMP_pressure;BME280_temperature;BME280_humidity;BME280_pressure;Samples;Min_cycle;Max_cycle;Signal;HPM_P1;HPM_P2
2023/04/03 00:00:20;;;;;;;4.70;1.50;;;4.50;99.90;;;;;;4803737;28;10001250;-71
2023/04/03 00:02:52;;;;;;;3.78;1.30;;;4.50;99.90;;;;;;5020732;28;20308;-71
2023/04/03 00:05:27;;;;;;;5.70;1.45;;;4.50;99.90;;;;;;5019716;28;20040;-71
2023/04/03 00:08:00;;;;;;;4.93;1.17;;;4.50;99.90;;;;;;5021432;28;20494;-71
2023/04/03 00:10:27;;;;;;;;;;;4.40;99.90;;;;;;5025500;28;20311;-72
2023/04/03 00:13:00;;;;;;;5.65;1.55;;;4.40;99.90;;;;;;5018481;28;19983;-71
2023/04/03 00:15:39;;;;;;;4.13;1.38;;;4.40;99.90;;;;;;5025947;28;20037;-72
2023/04/03 00:18:07;;;;;;;4.18;1.35;;;4.40;99.90;;;;;;5018317;28;20033;-71
2023/04/03 00:20:43;;;;;;;6.55;1.50;;;4.30;99.90;;;;;;5027876;28;20033;-72
2023/04/03 00:23:16;;;;;;;5.55;1.70;;;4.30;99.90;;;;;;5025696;28;20025;-71
2023/04/03 00:25:43;;;;;;;5.88;1.52;;;4.20;99.90;;;;;;5022303;28;20037;-71
2023/04/03 00:28:17;;;;;;;5.15;1.20;;;4.10;99.90;;;;;;5027993;28;20505;-72
2023/04/03 00:30:49;;;;;;;6.10;1.27;;;4.00;99.90;;;;;;5025584;28;20029;-71
2023/04/03 00:33:21;;;;;;;6.85;1.58;;;4.00;99.90;;;;;;5021889;28;20770;-72
2023/04/03 00:35:53;;;;;;;7.18;1.35;;;4.00;99.90;;;;;;5021108;28;20037;-71
2023/04/03 00:38:25;;;;;;;5.32;1.33;;;3.90;99.90;;;;;;5019269;28;20042;-71
2023/04/03 00:40:51;;;;;;;4.80;1.13;;;3.90;99.90;;;;;;5018511;28;20029;-71
2023/04/03 00:43:29;;;;;;;5.15;1.42;;;3.80;99.90;;;;;;5021249;28;20056;-71
2023/04/03 00:46:07;;;;;;;4.80;1.48;;;3.80;99.90;;;;;;5007083;28;20045;-71
2023/04/03 00:48:47;;;;;;;4.30;1.45;;;3.80;99.90;;;;;;5016453;28;20498;-71
2023/04/03 00:51:26;;;;;;;5.53;1.63;;;3.70;99.90;;;;;;5016633;28;20025;-71
2023/04/03 00:54:06;;;;;;;6.43;1.67;;;3.70;99.90;;;;;;5024901;28;20034;-71
2023/04/03 00:56:41;;;;;;;4.88;1.38;;;3.60;99.90;;;;;;5027706;28;20397;-71
2023/04/03 00:59:26;;;;;;;5.13;1.50;;;3.60;99.90;;;;;;5028725;28;20121;-71
2023/04/03 01:02:01;;;;;;;5.78;1.45;;;3.60;99.90;;;;;;5016014;28;20037;-71
2023/04/03 01:04:39;;;;;;;5.47;1.38;;;3.50;99.90;;;;;;5022297;28;20038;-71
2023/04/03 01:07:11;;;;;;;6.00;1.40;;;3.50;99.90;;;;;;5016908;28;20409;-71
2023/04/03 01:09:38;;;;;;;5.78;1.77;;;3.50;99.90;;;;;;5020053;28;20038;-71
2023/04/03 01:12:19;;;;;;;3.20;1.25;;;3.40;99.90;;;;;;5018734;28;20044;-71
2023/04/03 01:15:04;;;;;;;6.10;1.65;;;3.40;99.90;;;;;;5025606;28;20441;-72
2023/04/03 01:17:48;;;;;;;7.40;1.83;;;3.40;99.90;;;;;;5021907;28;20048;-71
2023/04/03 01:20:35;;;;;;;6.80;1.85;;;3.30;99.90;;;;;;5025631;28;20060;-71
2023/04/03 01:23:08;;;;;;;4.60;1.55;;;3.30;99.90;;;;;;5029170;28;20041;-72
2023/04/03 01:25:40;;;;;;;;;;;3.20;99.90;;;;;;5028240;28;20095;-71
2023/04/03 01:28:09;;;;;;;5.53;1.50;;;3.20;99.90;;;;;;5020383;28;19919;-72
2023/04/03 01:30:52;;;;;;;6.65;1.77;;;3.20;99.90;;;;;;5012713;28;20487;-72
2023/04/03 01:33:27;;;;;;;4.25;1.60;;;3.20;99.90;;;;;;5023056;28;20038;-71
2023/04/03 01:35:55;;;;;;;5.18;1.60;;;3.10;99.90;;;;;;5023581;28;22106;-71
2023/04/03 01:38:21;;;;;;;6.20;1.83;;;3.10;99.90;;;;;;5022277;28;20101;-71
2023/04/03 01:40:48;;;;;;;8.30;1.83;;;3.10;99.90;;;;;;5018261;28;20456;-72
2023/04/03 01:43:19;;;;;;;5.45;1.60;;;3.10;99.90;;;;;;5022087;28;20636;-72
2023/04/03 01:45:54;;;;;;;8.32;1.73;;;3.10;99.90;;;;;;5029016;28;20026;-72
2023/04/03 01:48:27;;;;;;;4.93;1.90;;;3.00;99.90;;;;;;5021943;28;20034;-71
2023/04/03 01:50:57;;;;;;;4.80;1.80;;;3.00;99.90;;;;;;5023760;28;20037;-71
2023/04/03 01:53:34;;;;;;;5.05;1.75;;;3.00;99.90;;;;;;5022669;28;20570;-71
2023/04/03 01:56:09;;;;;;;6.50;1.80;;;2.90;99.90;;;;;;5029205;28;20087;-71
2023/04/03 01:58:38;;;;;;;4.00;2.00;;;2.90;99.90;;;;;;5022047;28;20505;-71
2023/04/03 02:01:12;;;;;;;7.80;2.20;;;2.80;99.90;;;;;;5030229;28;20025;-71
2023/04/03 02:03:43;;;;;;;4.28;1.92;;;2.80;99.90;;;;;;5023058;28;20032;-71
2023/04/03 02:06:17;;;;;;;7.65;2.05;;;2.80;99.90;;;;;;5021792;28;20036;-71
2023/04/03 02:08:49;;;;;;;7.47;2.20;;;2.80;99.90;;;;;;5029781;28;20052;-71
2023/04/03 02:11:21;;;;;;;5.97;1.77;;;2.80;99.90;;;;;;5030908;28;20100;-72
2023/04/03 02:13:51;;;;;;;6.88;2.03;;;2.80;99.90;;;;;;5030136;28;20038;-72
2023/04/03 02:16:28;;;;;;;7.53;2.10;;;2.70;99.90;;;;;;5017759;28;20094;-72
2023/04/03 02:19:03;;;;;;;9.40;1.90;;;2.70;99.90;;;;;;5030457;28;20528;-71
2023/04/03 02:21:38;;;;;;;13.88;2.20;;;2.70;99.90;;;;;;5028853;28;20033;-71
2023/04/03 02:24:10;;;;;;;6.85;2.45;;;2.60;99.90;;;;;;5024823;28;20038;-72
2023/04/03 02:26:42;;;;;;;7.28;2.13;;;2.60;99.90;;;;;;5019037;28;20449;-72
2023/04/03 02:29:11;;;;;;;6.45;1.95;;;2.50;99.90;;;;;;5027121;28;20041;-71
2023/04/03 02:31:40;;;;;;;8.32;1.98;;;2.50;99.90;;;;;;5024057;28;20112;-72
2023/04/03 02:34:13;;;;;;;6.03;2.03;;;2.50;99.90;;;;;;5025480;28;20042;-72
2023/04/03 02:36:40;;;;;;;;;;;2.50;99.90;;;;;;5024473;28;20111;-72
2023/04/03 02:39:13;;;;;;;6.15;1.77;;;2.40;99.90;;;;;;5020630;28;19928;-72
2023/04/03 02:41:48;;;;;;;5.40;1.73;;;2.40;99.90;;;;;;5024976;28;20176;-72
2023/04/03 02:44:20;;;;;;;6.90;2.05;;;2.40;99.90;;;;;;5029304;28;20048;-71
2023/04/03 02:47:05;;;;;;;7.13;1.88;;;2.40;99.90;;;;;;5019475;28;20045;-71
2023/04/03 02:49:39;;;;;;;7.85;2.30;;;2.40;99.90;;;;;;5026835;28;20073;-71
2023/04/03 02:52:09;;;;;;;8.38;2.00;;;2.30;99.90;;;;;;5026248;28;20040;-72
2023/04/03 02:54:40;;;;;;;7.10;2.25;;;2.30;99.90;;;;;;5024886;28;20065;-71
2023/04/03 02:57:14;;;;;;;6.03;2.50;;;2.20;99.90;;;;;;5025546;28;20045;-71
2023/04/03 02:59:44;;;;;;;9.75;2.65;;;2.30;99.90;;;;;;5022387;28;20033;-71
2023/04/03 03:02:19;;;;;;;7.32;2.30;;;2.20;99.90;;;;;;5024250;28;20030;-72
2023/04/03 03:04:53;;;;;;;8.13;2.20;;;2.20;99.90;;;;;;5022473;28;20037;-71
2023/04/03 03:07:20;;;;;;;4.72;1.90;;;2.20;99.90;;;;;;5024314;28;20049;-71
2023/04/03 03:09:53;;;;;;;5.55;1.90;;;2.20;99.90;;;;;;5024674;28;20029;-71
2023/04/03 03:12:28;;;;;;;9.18;2.47;;;2.20;99.90;;;;;;5026603;28;20652;-71
2023/04/03 03:15:01;;;;;;;6.68;2.20;;;2.10;99.90;;;;;;5026688;28;20042;-71
2023/04/03 03:17:35;;;;;;;8.25;2.30;;;2.10;99.90;;;;;;5025889;28;20064;-71
2023/04/03 03:20:09;;;;;;;8.13;2.53;;;2.00;99.90;;;;;;5022660;28;20065;-71
2023/04/03 03:22:44;;;;;;;9.02;2.38;;;2.00;99.90;;;;;;5022430;28;20044;-71
2023/04/03 03:25:13;;;;;;;4.85;2.00;;;2.00;99.90;;;;;;5020023;28;20078;-71
2023/04/03 03:27:47;;;;;;;8.15;2.05;;;1.90;99.90;;;;;;5023938;28;20090;-72
2023/04/03 03:30:21;;;;;;;10.13;2.08;;;2.00;99.90;;;;;;5016610;28;20379;-71
2023/04/03 03:32:54;;;;;;;7.88;2.53;;;2.00;99.90;;;;;;5025061;28;20164;-71
2023/04/03 03:35:23;;;;;;;9.48;3.15;;;2.00;99.90;;;;;;5026058;28;20601;-72
2023/04/03 03:38:01;;;;;;;6.07;2.40;;;2.00;99.90;;;;;;5027846;28;20478;-72
2023/04/03 03:40:41;;;;;;;8.90;2.90;;;2.00;99.90;;;;;;5023035;28;20045;-71
2023/04/03 03:43:15;;;;;;;7.55;2.60;;;2.00;99.90;;;;;;5020559;28;20130;-71
2023/04/03 03:45:53;;;;;;;5.80;2.20;;;2.00;99.90;;;;;;5026464;28;20050;-72
2023/04/03 03:48:28;;;;;;;6.78;2.15;;;2.00;99.90;;;;;;5029151;28;20037;-72
2023/04/03 03:51:04;;;;;;;8.20;2.63;;;1.90;99.90;;;;;;5024421;28;20053;-72
2023/04/03 03:53:34;;;;;;;9.10;2.58;;;1.90;99.90;;;;;;5026968;28;20434;-71
2023/04/03 03:56:03;;;;;;;5.05;2.50;;;1.90;99.90;;;;;;5015334;28;20042;-72
2023/04/03 03:58:38;;;;;;;10.68;2.92;;;1.90;99.90;;;;;;5027429;28;20030;-72
2023/04/03 04:01:09;;;;;;;9.55;2.38;;;1.80;99.90;;;;;;5017594;28;20041;-72
2023/04/03 04:03:43;;;;;;;5.38;1.70;;;1.80;99.90;;;;;;5016394;28;20052;-72
2023/04/03 04:06:10;;;;;;;6.05;1.77;;;1.80;99.90;;;;;;5020132;28;20041;-72
2023/04/03 04:08:43;;;;;;;8.93;2.25;;;1.80;99.90;;;;;;5025654;28;20044;-71
2023/04/03 04:11:10;;;;;;;7.68;2.20;;;1.80;99.90;;;;;;5026434;28;20049;-71
2023/04/03 04:13:45;;;;;;;9.15;2.33;;;1.80;99.90;;;;;;5016773;28;20037;-72
2023/04/03 04:16:17;;;;;;;8.55;1.85;;;1.80;99.90;;;;;;5022998;28;20050;-71
2023/04/03 04:18:48;;;;;;;6.45;2.10;;;1.70;99.90;;;;;;5027858;28;20046;-71
2023/04/03 04:21:17;;;;;;;6.45;2.10;;;;;;;;;;5025115;28;20049;-72
2023/04/03 04:23:46;;;;;;;7.30;2.25;;;;;;;;;;5020895;28;20578;-71
2023/04/03 04:26:13;;;;;;;7.10;2.22;;;;;;;;;;5013058;28;20038;-72
2023/04/03 04:28:39;;;;;;;12.50;2.55;;;;;;;;;;5025178;28;20044;-72
2023/04/03 04:31:05;;;;;;;8.32;2.65;;;;;;;;;;5019372;28;20457;-72
2023/04/03 04:33:32;;;;;;;9.98;2.38;;;;;;;;;;5019842;28;20045;-72
2023/04/03 04:35:58;;;;;;;6.18;2.22;;;;;;;;;;5015933;28;20112;-72
2023/04/03 04:38:24;;;;;;;5.35;2.35;;;;;;;;;;5013940;28;20038;-72
2023/04/03 04:40:56;;;;;;;8.40;2.78;;;;;;;;;;5016046;28;20030;-72
2023/04/03 04:43:24;;;;;;;8.77;2.70;;;;;;;;;;5024226;28;20481;-72
2023/04/03 04:46:02;;;;;;;7.45;2.15;;;;;;;;;;5018014;28;20037;-72
2023/04/03 04:48:34;;;;;;;8.25;2.45;;;;;;;;;;5013627;28;20087;-72
2023/04/03 04:51:05;;;;;;;11.25;2.67;;;1.60;99.90;;;;;;5016412;28;20116;-72
2023/04/03 04:53:40;;;;;;;7.97;2.72;;;1.60;99.90;;;;;;5014273;28;20034;-72
2023/04/03 04:56:15;;;;;;;8.73;2.63;;;1.50;99.90;;;;;;5020145;28;20050;-72
2023/04/03 04:58:49;;;;;;;10.48;2.75;;;1.40;99.90;;;;;;5021479;28;20309;-72
2023/04/03 05:01:22;;;;;;;11.35;2.58;;;1.30;99.90;;;;;;5022032;28;20124;-72
2023/04/03 05:03:54;;;;;;;9.63;2.25;;;1.40;99.90;;;;;;5012473;28;20042;-72
2023/04/03 05:06:27;;;;;;;7.95;2.45;;;1.30;99.90;;;;;;5027963;28;20029;-73
2023/04/03 05:08:58;;;;;;;4.93;2.05;;;1.30;99.90;;;;;;5028761;28;20037;-72
2023/04/03 05:11:26;;;;;;;11.82;2.67;;;1.30;99.90;;;;;;5017146;28;20052;-72
2023/04/03 05:13:53;;;;;;;8.30;2.50;;;1.30;99.90;;;;;;5019716;28;20030;-73
2023/04/03 05:16:21;;;;;;;7.13;2.30;;;1.30;99.90;;;;;;5015085;28;20440;-73
2023/04/03 05:18:54;;;;;;;9.18;2.53;;;1.30;99.90;;;;;;5016378;28;20498;-72
2023/04/03 05:21:23;;;;;;;9.30;2.50;;;1.30;99.90;;;;;;5013667;28;20108;-72
2023/04/03 05:23:48;;;;;;;9.27;2.35;;;1.30;99.90;;;;;;5021797;28;20033;-72
2023/04/03 05:26:17;;;;;;;10.85;2.80;;;1.30;99.90;;;;;;5020577;28;20026;-72
2023/04/03 05:28:47;;;;;;;6.72;2.50;;;1.30;99.90;;;;;;5023738;28;20024;-73
2023/04/03 05:31:14;;;;;;;6.25;2.60;;;1.20;99.90;;;;;;5021671;28;20064;-72
2023/04/03 05:33:39;;;;;;;8.27;2.88;;;1.30;99.90;;;;;;5018068;28;20026;-72
2023/04/03 05:36:11;;;;;;;6.40;2.15;;;1.20;99.90;;;;;;5022535;28;20187;-72
2023/04/03 05:38:43;;;;;;;6.82;2.55;;;1.20;99.90;;;;;;5020836;28;20524;-72
2023/04/03 05:41:09;;;;;;;9.60;2.75;;;1.20;99.90;;;;;;5023164;28;20041;-72
2023/04/03 05:43:39;;;;;;;6.10;2.65;;;1.20;99.90;;;;;;5024228;28;20045;-72
2023/04/03 05:46:20;;;;;;;13.48;2.60;;;1.20;99.90;;;;;;5028698;28;20030;-72
2023/04/03 05:48:48;;;;;;;4.78;2.45;;;1.20;99.90;;;;;;5016346;28;20075;-72
2023/04/03 05:51:21;;;;;;;8.23;2.90;;;1.20;99.90;;;;;;5028428;28;20046;-72
2023/04/03 05:53:55;;;;;;;7.97;2.30;;;1.20;99.90;;;;;;5022965;28;20036;-72
2023/04/03 05:56:20;;;;;;;6.45;2.50;;;1.20;99.90;;;;;;5027486;28;20061;-72
2023/04/03 05:58:48;;;;;;;11.75;2.97;;;1.20;99.90;;;;;;5023910;28;20034;-72
2023/04/03 06:01:14;;;;;;;8.63;2.90;;;1.20;99.90;;;;;;5022088;28;20048;-72
2023/04/03 06:03:42;;;;;;;8.82;2.45;;;1.30;99.90;;;;;;5020334;28;22262;-73
2023/04/03 06:06:07;;;;;;;7.30;2.80;;;1.30;99.90;;;;;;5021324;28;20033;-73
2023/04/03 06:08:40;;;;;;;9.38;3.00;;;1.30;99.90;;;;;;5023587;28;20026;-73
2023/04/03 06:11:05;;;;;;;6.35;2.42;;;1.30;99.90;;;;;;5018668;28;20065;-73
2023/04/03 06:13:35;;;;;;;8.93;3.10;;;1.30;99.90;;;;;;5025463;28;20103;-73
2023/04/03 06:16:03;;;;;;;9.77;2.97;;;1.30;99.90;;;;;;5027493;28;20490;-73
2023/04/03 06:18:29;;;;;;;8.30;3.67;;;1.40;99.90;;;;;;5018090;28;20036;-73
2023/04/03 06:20:58;;;;;;;8.23;3.05;;;1.40;99.90;;;;;;5022649;28;20112;-72
2023/04/03 06:23:29;;;;;;;7.15;3.10;;;1.40;99.90;;;;;;5024334;28;20025;-72
2023/04/03 06:25:56;;;;;;;6.30;2.92;;;1.40;99.90;;;;;;5013270;28;20525;-72
2023/04/03 06:28:26;;;;;;;8.45;2.90;;;1.40;99.90;;;;;;5020960;28;20029;-73
2023/04/03 06:30:55;;;;;;;8.07;3.13;;;1.50;99.90;;;;;;5022106;28;20040;-73
2023/04/03 06:33:34;;;;;;;9.60;3.30;;;1.50;99.90;;;;;;5020235;28;20144;-71
2023/04/03 06:36:04;;;;;;;8.00;3.53;;;1.50;99.90;;;;;;5024374;28;20037;-72
2023/04/03 06:38:35;;;;;;;9.63;3.35;;;1.60;99.90;;;;;;5020903;28;20202;-71
2023/04/03 06:41:00;;;;;;;12.95;3.95;;;1.60;99.90;;;;;;5019480;28;20172;-72
2023/04/03 06:43:31;;;;;;;10.23;3.00;;;1.70;99.90;;;;;;5028998;28;20537;-72
2023/04/03 06:45:57;;;;;;;6.82;3.22;;;1.70;99.90;;;;;;5028320;28;20490;-71
2023/04/03 06:48:27;;;;;;;12.23;3.03;;;1.80;99.90;;;;;;5022494;28;20048;-71
2023/04/03 06:50:54;;;;;;;9.95;3.75;;;1.80;99.90;;;;;;5026550;28;20440;-71
2023/04/03 06:53:26;;;;;;;6.55;2.83;;;1.90;99.90;;;;;;5016585;28;20022;-71
2023/04/03 06:55:51;;;;;;;9.52;3.58;;;1.90;99.90;;;;;;5023662;28;20398;-71
2023/04/03 06:58:19;;;;;;;8.35;3.20;;;2.00;99.90;;;;;;5017554;28;20086;-71
2023/04/03 07:00:47;;;;;;;10.55;3.30;;;2.10;99.90;;;;;;5025366;28;20043;-71
2023/04/03 07:03:18;;;;;;;8.65;3.40;;;2.10;99.90;;;;;;5026449;28;20513;-71
2023/04/03 07:05:48;;;;;;;9.02;2.88;;;2.10;99.90;;;;;;5025354;28;20398;-71
2023/04/03 07:08:15;;;;;;;10.07;3.30;;;2.20;99.90;;;;;;5026012;28;20426;-71
2023/04/03 07:10:41;;;;;;;5.80;2.67;;;2.20;99.90;;;;;;5028300;28;20037;-71
2023/04/03 07:13:10;;;;;;;12.82;3.45;;;2.30;99.90;;;;;;5022570;28;20057;-71
2023/04/03 07:15:39;;;;;;;10.00;3.63;;;2.30;99.90;;;;;;5024717;28;20517;-72
2023/04/03 07:18:05;;;;;;;11.95;3.65;;;2.40;99.90;;;;;;5017319;28;20053;-71
2023/04/03 07:20:31;;;;;;;7.75;3.28;;;2.30;99.90;;;;;;5023573;28;20048;-71
2023/04/03 07:22:57;;;;;;;6.72;3.00;;;2.30;99.90;;;;;;5022086;28;20434;-71
2023/04/03 07:25:23;;;;;;;7.47;3.22;;;2.30;99.90;;;;;;5022733;28;20025;-72
2023/04/03 07:27:49;;;;;;;8.80;3.47;;;2.40;99.90;;;;;;5021490;28;20390;-72
2023/04/03 07:30:15;;;;;;;11.68;3.40;;;2.40;99.90;;;;;;5020202;28;20033;-72
2023/04/03 07:32:41;;;;;;;8.15;3.40;;;2.40;99.90;;;;;;5024721;28;20441;-72
2023/04/03 07:35:07;;;;;;;7.55;3.15;;;2.40;99.90;;;;;;5024635;28;20033;-72
2023/04/03 07:37:33;;;;;;;8.40;3.33;;;2.50;99.90;;;;;;5014703;28;20079;-71
2023/04/03 07:40:01;;;;;;;9.68;3.55;;;2.60;99.90;;;;;;5018252;28;20137;-71
2023/04/03 07:42:29;;;;;;;11.18;3.03;;;2.70;99.90;;;;;;5025568;28;20033;-71
2023/04/03 07:44:58;;;;;;;8.27;2.60;;;2.70;99.90;;;;;;5027778;28;20042;-72
2023/04/03 07:47:31;;;;;;;7.90;2.60;;;2.70;99.90;;;;;;5020593;28;20390;-71
2023/04/03 07:49:59;;;;;;;;;;;2.70;99.90;;;;;;5025096;28;20110;-72
2023/04/03 07:52:29;;;;;;;5.43;2.63;;;2.80;99.90;;;;;;5026470;28;19920;-71
2023/04/03 07:54:55;;;;;;;6.80;2.58;;;2.80;99.90;;;;;;5015529;28;20026;-72
2023/04/03 07:57:24;;;;;;;5.90;2.58;;;3.00;99.90;;;;;;5023418;28;20060;-71
2023/04/03 07:59:55;;;;;;;11.45;3.08;;;3.00;99.90;;;;;;5021657;28;20029;-72
2023/04/03 08:02:31;;;;;;;5.75;2.47;;;3.10;99.90;;;;;;5026323;28;20344;-71
2023/04/03 08:05:10;;;;;;;7.30;2.63;;;3.20;99.90;;;;;;5024568;28;20486;-71
2023/04/03 08:07:42;;;;;;;8.95;2.92;;;3.20;99.90;;;;;;5024771;28;20047;-71
2023/04/03 08:10:09;;;;;;;5.80;2.40;;;3.20;99.90;;;;;;5023227;28;20025;-71
2023/04/03 08:12:43;;;;;;;7.65;2.80;;;3.40;99.90;;;;;;5025512;28;20569;-71
2023/04/03 08:15:17;;;;;;;7.30;2.42;;;3.50;99.90;;;;;;5022237;28;20026;-71
2023/04/03 08:17:52;;;;;;;8.07;2.85;;;3.50;99.90;;;;;;5028450;28;20545;-71
2023/04/03 08:20:20;;;;;;;5.22;2.50;;;3.40;99.90;;;;;;5030498;28;20021;-71
2023/04/03 08:22:52;;;;;;;10.05;2.70;;;3.40;99.90;;;;;;5029825;28;20311;-71
2023/04/03 08:25:18;;;;;;;9.38;2.65;;;3.60;99.90;;;;;;5024242;28;20111;-71
2023/04/03 08:27:54;;;;;;;9.63;3.13;;;3.70;99.90;;;;;;5027586;28;20633;-71
2023/04/03 08:30:26;;;;;;;7.35;2.80;;;3.70;99.90;;;;;;5024045;28;20484;-71
2023/04/03 08:32:56;;;;;;;5.60;2.58;;;3.90;99.90;;;;;;5017919;28;20468;-71
2023/04/03 08:35:25;;;;;;;8.40;2.80;;;4.00;99.90;;;;;;5022038;28;20149;-72
2023/04/03 08:37:55;;;;;;;6.07;2.10;;;4.10;99.90;;;;;;5028650;28;20069;-72
2023/04/03 08:40:27;;;;;;;5.90;2.20;;;4.10;99.90;;;;;;5028275;28;20029;-71
2023/04/03 08:43:07;;;;;;;5.65;2.25;;;4.20;99.90;;;;;;5025789;28;20026;-71
2023/04/03 08:45:58;;;;;;;4.90;2.10;;;4.30;99.90;;;;;;5028351;28;20517;-72
2023/04/03 08:48:33;;;;;;;7.88;2.35;;;4.30;99.90;;;;;;5022526;28;20116;-71
2023/04/03 08:51:11;;;;;;;4.43;1.90;;;4.20;99.90;;;;;;5026736;28;20040;-71
2023/04/03 08:53:59;;;;;;;8.35;2.10;;;4.40;99.90;;;;;;5024342;28;20037;-71
2023/04/03 08:56:31;;;;;;;5.30;2.00;;;4.50;99.90;;;;;;5022690;28;20041;-72
2023/04/03 08:59:08;;;;;;;3.33;1.17;;;4.60;99.90;;;;;;5028861;28;20524;-71
2023/04/03 09:01:44;;;;;;;6.93;1.60;;;4.60;99.90;;;;;;5023898;28;20029;-72
2023/04/03 09:04:18;;;;;;;4.93;1.38;;;4.50;99.90;;;;;;5024042;28;20474;-72
2023/04/03 09:06:57;;;;;;;3.90;1.27;;;4.60;99.90;;;;;;5024835;28;20033;-71
2023/04/03 09:09:45;;;;;;;4.45;1.75;;;4.50;99.90;;;;;;5026438;28;23086;-71
2023/04/03 09:12:25;;;;;;;6.18;1.80;;;4.60;99.90;;;;;;5024956;28;20095;-72
2023/04/03 09:15:15;;;;;;;8.57;1.58;;;4.50;99.90;;;;;;5018081;28;20128;-72
2023/04/03 09:18:05;;;;;;;4.78;1.50;;;4.60;99.90;;;;;;5023954;28;20025;-71
2023/04/03 09:20:43;;;;;;;3.45;1.38;;;4.70;99.90;;;;;;5017223;28;20029;-71
2023/04/03 09:23:39;;;;;;;4.88;1.50;;;4.80;99.90;;;;;;5025764;28;20056;-71
2023/04/03 09:26:19;;;;;;;3.03;1.00;;;4.90;99.90;;;;;;5025964;28;20037;-73
2023/04/03 09:28:56;;;;;;;2.40;0.95;;;4.90;99.90;;;;;;5027566;28;20049;-74
2023/04/03 09:31:32;;;;;;;2.30;1.10;;;4.80;99.90;;;;;;5023818;28;20142;-72
2023/04/03 09:34:12;;;;;;;2.90;0.90;;;4.70;99.90;;;;;;5020326;28;20034;-73
2023/04/03 09:36:45;;;;;;;4.68;0.98;;;;;;;;;;5026678;28;20025;-71
2023/04/03 09:39:19;;;;;;;3.60;0.90;;;;;;;;;;5021273;28;20026;-72
2023/04/03 09:42:09;;;;;;;3.22;0.90;;;;;;;;;;5026705;28;20116;-71
2023/04/03 09:44:44;;;;;;;4.40;1.10;;;;;;;;;;5026808;28;20053;-71
2023/04/03 09:47:26;;;;;;;4.47;1.17;;;;;;;;;;5025109;28;20029;-72
2023/04/03 09:50:14;;;;;;;2.80;0.80;;;;;;;;;;5019669;28;20542;-73
2023/04/03 09:52:51;;;;;;;3.55;1.58;;;;;;;;;;5025794;28;20769;-71
2023/04/03 09:55:28;;;;;;;2.45;1.05;;;;;;;;;;5023912;28;20029;-72
2023/04/03 09:57:58;;;;;;;3.13;1.13;;;;;;;;;;5024350;28;20029;-72
2023/04/03 10:00:40;;;;;;;5.90;1.35;;;;;;;;;;5022139;28;20112;-73
2023/04/03 10:03:25;;;;;;;1.65;0.80;;;;;;;;;;5021884;28;20025;-73
2023/04/03 10:05:59;;;;;;;3.45;1.00;;;;;;;;;;5022549;28;20250;-72
2023/04/03 10:08:32;;;;;;;5.93;1.40;;;;;;;;;;5022512;28;20490;-72
2023/04/03 10:11:00;;;;;;;;;;;;;;;;;;5026040;28;20045;-72
2023/04/03 10:13:29;;;;;;;4.70;1.42;;;;;;;;;;5023740;28;19955;-73
2023/04/03 10:15:58;;;;;;;6.85;1.48;;;5.30;99.90;;;;;;5020914;28;20111;-74
2023/04/03 10:18:50;;;;;;;5.30;1.52;;;;;;;;;;5019316;28;20712;-73
2023/04/03 10:25:36;;;;;;;4.45;1.15;;;;;;;;;;5082081;27;20103;-70
2023/04/03 10:28:05;;;;;;;8.43;1.42;;;5.30;99.90;;;;;;5052855;28;20037;-70
2023/04/03 10:30:38;;;;;;;3.35;1.08;;;5.40;99.90;;;;;;5053785;28;20037;-71
2023/04/03 10:33:22;;;;;;;3.38;1.25;;;5.50;99.90;;;;;;5051973;28;20033;-71
2023/04/03 10:36:12;;;;;;;2.90;1.35;;;5.70;99.90;;;;;;5060526;28;20029;-71
2023/04/03 10:39:09;;;;;;;2.90;1.05;;;5.60;99.90;;;;;;5057053;28;20501;-70
2023/04/03 10:41:51;;;;;;;2.92;1.10;;;5.60;99.90;;;;;;5063380;28;20036;-70
2023/04/03 10:44:40;;;;;;;2.40;0.98;;;5.60;99.90;;;;;;5060943;28;20031;-70
2023/04/03 10:47:23;;;;;;;4.85;1.00;;;5.60;99.90;;;;;;5049213;28;20037;-70
2023/04/03 10:50:08;;;;;;;2.75;0.80;;;5.70;99.90;;;;;;5048067;28;20018;-70
2023/04/03 10:52:57;;;;;;;3.67;1.00;;;6.00;99.90;;;;;;5051235;28;20252;-70
2023/04/03 10:55:42;;;;;;;4.90;1.10;;;6.20;99.90;;;;;;5050347;28;20466;-70
2023/04/03 10:58:32;;;;;;;4.18;1.20;;;6.50;99.90;;;;;;5053586;28;20440;-69
2023/04/03 11:01:06;;;;;;;2.72;1.02;;;6.20;99.90;;;;;;5050495;28;20378;-70
2023/04/03 11:03:55;;;;;;;4.68;0.95;;;5.90;99.90;;;;;;5052366;28;20104;-70
2023/04/03 11:06:25;;;;;;;1.55;0.90;;;5.90;99.90;;;;;;5052362;28;20025;-69
2023/04/03 11:09:07;;;;;;;3.95;1.00;;;6.10;99.90;;;;;;5053724;28;20029;-69
2023/04/03 11:11:41;;;;;;;2.45;1.02;;;6.20;99.90;;;;;;5045261;28;20097;-70
2023/04/03 11:14:31;;;;;;;4.35;1.08;;;6.30;99.90;;;;;;5050254;28;20040;-70
2023/04/03 11:17:24;;;;;;;3.53;1.10;;;6.20;99.90;;;;;;5052336;28;20394;-70
2023/04/03 11:20:32;;;;;;;2.75;0.90;;;6.10;99.90;;;;;;5052626;28;20027;-71
2023/04/03 11:23:06;;;;;;;2.10;0.90;;;6.40;99.90;;;;;;5047900;28;20447;-70
2023/04/03 11:25:40;;;;;;;2.92;1.10;;;6.50;99.90;;;;;;5026068;28;20068;-70
2023/04/03 11:28:19;;;;;;;3.22;1.00;;;6.60;99.90;;;;;;5030078;28;20033;-70
2023/04/03 11:31:08;;;;;;;4.82;1.10;;;6.70;99.90;;;;;;5034118;28;20087;-71
2023/04/03 11:34:02;;;;;;;5.40;0.93;;;6.70;99.90;;;;;;5033618;28;20013;-70
2023/04/03 11:36:33;;;;;;;3.25;0.98;;;6.70;99.90;;;;;;5019123;28;20092;-69
2023/04/03 11:39:18;;;;;;;1.27;0.80;;;6.80;99.90;;;;;;5007921;28;20056;-70
2023/04/03 11:41:45;;;;;;;3.70;0.88;;;6.80;99.90;;;;;;5014852;28;20029;-70
2023/04/03 11:44:31;;;;;;;2.72;1.00;;;7.10;99.90;;;;;;5010095;28;20559;-70
2023/04/03 11:47:00;;;;;;;4.07;1.02;;;7.10;99.90;;;;;;5006681;28;20502;-70
2023/04/03 11:50:03;;;;;;;4.35;1.15;;;7.10;99.90;;;;;;5013747;28;20022;-70
2023/04/03 11:53:07;;;;;;;4.68;0.82;;;6.60;99.90;;;;;;5016412;28;20088;-69
2023/04/03 11:55:36;;;;;;;2.97;1.10;;;6.30;99.90;;;;;;4975639;28;20092;-70
2023/04/03 11:58:16;;;;;;;1.55;0.80;;;6.30;99.90;;;;;;5010792;28;20487;-69
2023/04/03 12:06:00;;;;;;;2.42;1.20;;;6.20;99.90;;;;;;5015337;28;20477;-70
2023/04/03 12:08:53;;;;;;;6.53;1.60;;;6.10;99.90;;;;;;5011171;28;20105;-70
2023/04/03 12:11:29;;;;;;;3.95;1.15;;;5.90;99.90;;;;;;5012840;28;20494;-70
2023/04/03 12:14:00;;;;;;;4.38;1.20;;;5.80;99.90;;;;;;5013161;28;20053;-70
2023/04/03 12:16:44;;;;;;;3.17;1.08;;;5.60;99.90;;;;;;5014780;28;20075;-69
2023/04/03 12:19:17;;;;;;;4.40;1.20;;;5.50;99.90;;;;;;5011543;28;20037;-70
2023/04/03 12:21:48;;;;;;;4.78;1.15;;;5.70;99.90;;;;;;5007296;28;20390;-69
2023/04/03 12:24:35;;;;;;;4.85;1.20;;;5.90;99.90;;;;;;5016139;28;20053;-70
2023/04/03 12:27:08;;;;;;;5.32;1.48;;;6.10;99.90;;;;;;5006557;28;20037;-70
2023/04/03 12:29:40;;;;;;;;;;;5.90;99.90;;;;;;5011286;28;20112;-69
2023/04/03 12:32:36;;;;;;;2.50;1.00;;;5.90;99.90;;;;;;5015198;28;20369;-70
2023/04/03 12:35:16;;;;;;;4.63;1.33;;;5.90;99.90;;;;;;5010073;28;20046;-70
2023/04/03 12:38:16;;;;;;;4.22;1.20;;;6.00;99.90;;;;;;5010764;28;20289;-70
2023/04/03 12:40:52;;;;;;;2.08;1.13;;;6.30;99.90;;;;;;5012970;28;20029;-70
2023/04/03 12:43:38;;;;;;;6.68;1.33;;;6.50;99.90;;;;;;5015144;28;20034;-70
2023/04/03 12:46:07;;;;;;;3.28;1.27;;;6.70;99.90;;;;;;5011025;28;20057;-70
2023/04/03 12:48:58;;;;;;;3.17;1.00;;;6.70;99.90;;;;;;5010833;28;20284;-70
2023/04/03 12:51:35;;;;;;;3.25;1.48;;;6.70;99.90;;;;;;5009286;28;20033;-70
2023/04/03 12:54:13;;;;;;;4.55;1.50;;;6.80;99.90;;;;;;5014751;28;20195;-69
2023/04/03 12:56:41;;;;;;;2.45;1.30;;;6.90;99.90;;;;;;5014832;28;20030;-69
2023/04/03 12:59:21;;;;;;;3.60;1.42;;;6.60;99.90;;;;;;5017973;28;20029;-69
2023/04/03 13:01:58;;;;;;;4.60;1.15;;;6.70;99.90;;;;;;5013748;28;20530;-69
2023/04/03 13:04:39;;;;;;;4.85;1.20;;;6.90;99.90;;;;;;5014410;28;20026;-69
2023/04/03 13:07:05;;;;;;;3.05;1.30;;;7.10;99.90;;;;;;4311427;28;10000717;-69
2023/04/03 13:09:32;;;;;;;6.40;1.50;;;7.30;99.90;;;;;;5011421;28;20049;-69
2023/04/03 13:12:08;;;;;;;2.90;1.52;;;7.40;99.90;;;;;;5004580;28;20128;-69
2023/04/03 13:14:34;;;;;;;5.30;1.20;;;7.40;99.90;;;;;;5010438;28;20037;-69
2023/04/03 13:17:13;;;;;;;4.82;1.45;;;7.20;99.90;;;;;;5006666;28;20029;-69
2023/04/03 13:19:41;;;;;;;9.88;1.33;;;6.90;99.90;;;;;;5008418;28;20026;-70
2023/04/03 13:22:31;;;;;;;3.70;1.30;;;6.40;99.90;;;;;;5016692;28;20502;-71
2023/04/03 13:24:59;;;;;;;4.38;1.40;;;6.70;99.90;;;;;;5015169;28;20060;-69
2023/04/03 13:27:25;;;;;;;3.85;1.40;;;6.90;99.90;;;;;;5020783;28;20037;-70
2023/04/03 13:29:58;;;;;;;5.80;1.73;;;6.60;99.90;;;;;;5014928;28;20108;-70
2023/04/03 13:32:28;;;;;;;5.03;1.67;;;6.50;99.90;;;;;;5008592;28;20108;-70
2023/04/03 13:34:54;;;;;;;2.97;1.35;;;6.40;99.90;;;;;;5009460;28;22332;-70
2023/04/03 13:37:32;;;;;;;3.45;1.20;;;6.50;99.90;;;;;;5021119;28;20036;-69
2023/04/03 13:40:11;;;;;;;2.78;1.25;;;6.60;99.90;;;;;;5006819;28;20029;-70
2023/04/03 13:42:40;;;;;;;3.00;1.50;;;6.70;99.90;;;;;;5006056;28;20037;-70
2023/04/03 13:45:27;;;;;;;4.10;1.50;;;6.90;99.90;;;;;;5017788;28;20457;-70
2023/04/03 13:48:07;;;;;;;4.95;1.60;;;7.00;99.90;;;;;;5010389;28;20541;-70
2023/04/03 13:50:33;;;;;;;5.53;1.60;;;7.00;99.90;;;;;;5010105;28;20057;-70